Time;durP1;ratioP1;P1;durP2;ratioP2;P2;SDS_P1;SDS_P2;PMS_P1;PMS_P2;Temp;Humidity;BMP_temperature;BMP_pressure;BME280_temperature;BME280_humidity;BME280_pressure;Samples;Min_cycle;Max_cycle;Signal;HPM_P1;HPM_P2
2023/12/16 00:02:05;;;;;;;7.93;3.45;;;;;;;;;;5002674;28;20055;-79
2023/12/16 00:04:36;;;;;;;4.28;3.13;;;;;;;;;;5005318;28;20081;-79
2023/12/16 00:07:03;;;;;;;7.15;3.40;;;;;;;;;;5007229;28;20057;-79
2023/12/16 00:09:31;;;;;;;4.82;2.95;;;;;;;;;;5030342;28;20042;-79
2023/12/16 00:11:58;;;;;;;5.30;3.30;;;;;;;;;;5006189;28;20054;-79
2023/12/16 00:14:26;;;;;;;6.35;3.10;;;;;;;;;;5009313;28;20050;-79
2023/12/16 00:16:53;;;;;;;7.55;3.58;;;;;;;;;;5009656;28;20109;-80
2023/12/16 00:19:21;;;;;;;5.15;2.97;;;;;;;;;;5009442;28;20053;-80
2023/12/16 00:21:48;;;;;;;3.33;2.95;;;;;;;;;;5007693;28;20050;-79
2023/12/16 00:24:15;;;;;;;6.93;2.90;;;;;;;;;;5006601;28;20073;-80
2023/12/16 00:26:42;;;;;;;6.20;3.58;;;;;;;;;;5006191;28;20050;-80
2023/12/16 00:29:09;;;;;;;5.82;2.83;;;;;;;;;;5006060;28;20047;-80
2023/12/16 00:31:37;;;;;;;6.20;3.53;;;;;;;;;;5008797;28;20116;-80
2023/12/16 00:34:04;;;;;;;5.85;2.97;;;;;;;;;;5009088;28;20132;-79
2023/12/16 00:36:32;;;;;;;6.70;3.95;;;;;;;;;;5010925;28;20042;-79
2023/12/16 00:38:59;;;;;;;5.15;3.60;;;;;;;;;;5033443;28;20045;-79
2023/12/16 00:41:26;;;;;;;6.88;3.33;;;;;;;;;;5007627;28;20061;-79
2023/12/16 00:43:54;;;;;;;5.30;3.30;;;;;;;;;;5005948;28;20058;-80
2023/12/16 00:46:21;;;;;;;6.40;3.40;;;;;;;;;;5011144;28;20054;-79
2023/12/16 00:48:48;;;;;;;4.60;3.17;;;;;;;;;;5008705;28;20491;-79
2023/12/16 00:51:16;;;;;;;11.05;3.60;;;;;;;;;;5009057;28;20057;-79
2023/12/16 00:53:43;;;;;;;7.00;3.50;;;;;;;;;;5009092;28;20068;-79
2023/12/16 00:56:10;;;;;;;7.13;3.70;;;;;;;;;;5008687;28;20104;-79
2023/12/16 00:58:38;;;;;;;7.20;3.28;;;;;;;;;;5005907;28;20050;-79
2023/12/16 01:01:05;;;;;;;9.00;3.42;;;;;;;;;;5005245;28;20116;-79
2023/12/16 01:03:32;;;;;;;7.53;3.78;;;;;;;;;;5008934;28;20054;-79
2023/12/16 01:06:00;;;;;;;7.85;3.40;;;;;;;;;;5010405;28;20068;-79
2023/12/16 01:08:27;;;;;;;6.13;3.65;;;;;;;;;;5031998;28;20466;-79
2023/12/16 01:10:54;;;;;;;4.45;3.25;;;;;;;;;;5005281;28;20471;-80
2023/12/16 01:13:21;;;;;;;5.28;3.10;;;;;;;;;;5006504;28;20060;-79
2023/12/16 01:15:49;;;;;;;4.60;3.40;;;;;;;;;;5008212;28;20125;-79
2023/12/16 01:18:16;;;;;;;6.28;4.00;;;;;;;;;;5008563;28;20049;-79
2023/12/16 01:20:43;;;;;;;7.30;3.88;;;;;;;;;;5004492;28;20122;-80
2023/12/16 01:23:10;;;;;;;9.30;3.42;;;;;;;;;;5006103;28;20097;-79
2023/12/16 01:25:38;;;;;;;6.55;3.63;;;;;;;;;;5008109;28;20104;-80
2023/12/16 01:28:05;;;;;;;8.57;3.28;;;;;;;;;;5024842;28;20458;-80
2023/12/16 01:30:32;;;;;;;6.50;3.40;;;;;;;;;;5005969;28;20042;-80
2023/12/16 01:33:00;;;;;;;5.63;3.58;;;;;;;;;;5005288;28;20054;-80
2023/12/16 01:35:28;;;;;;;8.68;3.70;;;;;;;;;;5014747;28;20049;-80
2023/12/16 01:37:55;;;;;;;5.18;3.83;;;;;;;;;;5018326;28;20045;-79
2023/12/16 01:40:23;;;;;;;8.02;3.80;;;;;;;;;;5032167;28;20054;-79
2023/12/16 01:42:50;;;;;;;6.43;3.80;;;;;;;;;;5005498;28;20077;-79
2023/12/16 01:45:18;;;;;;;6.85;3.65;;;;;;;;;;5005180;28;20524;-79
2023/12/16 01:47:46;;;;;;;4.65;3.42;;;;;;;;;;5008373;28;20049;-79
2023/12/16 01:50:14;;;;;;;8.00;3.90;;;;;;;;;;5008426;28;20404;-79
2023/12/16 01:52:42;;;;;;;9.27;3.67;;;;;;;;;;5005162;28;20133;-79
2023/12/16 01:55:10;;;;;;;10.07;3.75;;;;;;;;;;5005389;28;20562;-80
2023/12/16 01:57:38;;;;;;;7.50;3.40;;;;;;;;;;5008075;28;20053;-79
2023/12/16 02:00:06;;;;;;;5.60;3.50;;;;;;;;;;5009127;28;20046;-79
2023/12/16 02:02:34;;;;;;;10.93;4.20;;;;;;;;;;5006870;28;20050;-79
2023/12/16 02:05:01;;;;;;;15.43;4.50;;;;;;;;;;5008503;28;20053;-79
2023/12/16 02:07:28;;;;;;;10.20;3.28;;;;;;;;;;5030059;28;20046;-80
2023/12/16 02:09:56;;;;;;;6.78;3.47;;;;;;;;;;5007438;28;20046;-79
2023/12/16 02:12:26;;;;;;;7.97;3.78;;;;;;;;;;5007445;28;20483;-79
2023/12/16 02:14:53;;;;;;;7.10;4.30;;;;;;;;;;5010134;28;20470;-79
2023/12/16 02:17:21;;;;;;;9.90;4.55;;;;;;;;;;5011428;28;20050;-79
2023/12/16 02:19:48;;;;;;;6.55;4.07;;;;;;;;;;5007146;28;20058;-79
2023/12/16 02:22:15;;;;;;;10.10;4.22;;;;;;;;;;5007277;28;20054;-79
2023/12/16 02:24:43;;;;;;;5.95;3.90;;;;;;;;;;5007743;28;20134;-80
2023/12/16 02:27:10;;;;;;;9.20;4.45;;;;;;;;;;5008458;28;20062;-79
2023/12/16 02:29:37;;;;;;;6.97;4.13;;;;;;;;;;5019778;28;20054;-79
2023/12/16 02:32:05;;;;;;;11.07;4.90;;;;;;;;;;5015966;28;20528;-79
2023/12/16 02:34:32;;;;;;;11.20;4.68;;;;;;;;;;5033515;28;20045;-80
2023/12/16 02:37:05;;;;;;;8.35;3.70;;;;;;;;;;5008112;28;20065;-79
2023/12/16 02:39:33;;;;;;;7.93;4.38;;;;;;;;;;5018455;28;20054;-80
2023/12/16 02:42:01;;;;;;;9.23;4.38;;;;;;;;;;5020361;28;20045;-80
2023/12/16 02:44:28;;;;;;;9.30;5.32;;;;;;;;;;5011123;28;20113;-80
2023/12/16 02:46:55;;;;;;;6.85;4.40;;;;;;;;;;5009049;28;20050;-79
2023/12/16 02:49:22;;;;;;;6.38;4.57;;;;;;;;;;5010060;28;20459;-79
2023/12/16 02:51:50;;;;;;;8.52;4.85;;;;;;;;;;5019457;28;20048;-80
2023/12/16 02:54:17;;;;;;;9.32;4.75;;;;;;;;;;5008496;28;20049;-80
2023/12/16 02:56:44;;;;;;;6.85;4.55;;;;;;;;;;5003423;28;20105;-80
2023/12/16 02:59:11;;;;;;;11.05;4.43;;;;;;;;;;5003680;28;20105;-80
2023/12/16 03:01:39;;;;;;;8.50;4.85;;;;;;;;;;5006603;28;20064;-80
2023/12/16 03:04:06;;;;;;;12.43;4.82;;;;;;;;;;5008349;28;20049;-80
2023/12/16 03:06:35;;;;;;;9.20;5.50;;;;;;;;;;5005385;28;20116;-79
2023/12/16 03:09:03;;;;;;;11.75;5.75;;;;;;;;;;5003006;28;20069;-79
2023/12/16 03:11:30;;;;;;;8.48;5.65;;;;;;;;;;5005061;28;20050;-79
2023/12/16 03:13:57;;;;;;;10.77;5.50;;;;;;;;;;5006666;28;20400;-79
2023/12/16 03:16:24;;;;;;;9.45;4.90;;;;;;;;;;5015682;28;20081;-80
2023/12/16 03:18:52;;;;;;;9.07;5.72;;;;;;;;;;5003826;28;20054;-80
2023/12/16 03:21:19;;;;;;;9.80;4.78;;;;;;;;;;5005450;28;20403;-80
2023/12/16 03:23:46;;;;;;;10.23;5.03;;;;;;;;;;5031365;28;20050;-79
2023/12/16 03:26:14;;;;;;;7.78;5.32;;;;;;;;;;5006465;28;20488;-79
2023/12/16 03:28:41;;;;;;;13.00;5.43;;;;;;;;;;5003759;28;20120;-79
2023/12/16 03:31:08;;;;;;;10.30;5.05;;;;;;;;;;5003719;28;20054;-80
2023/12/16 03:33:36;;;;;;;8.82;5.43;;;;;;;;;;5006112;28;20142;-80
2023/12/16 03:36:03;;;;;;;11.68;5.63;;;;;;;;;;5008700;28;20129;-79
2023/12/16 03:38:31;;;;;;;13.02;4.65;;;;;;;;;;5006905;28;20108;-79
2023/12/16 03:40:59;;;;;;;14.45;5.50;;;;;;;;;;5003665;28;20055;-79
2023/12/16 03:43:26;;;;;;;9.68;4.85;;;;;;;;;;5005477;28;20456;-79
2023/12/16 03:45:53;;;;;;;11.18;5.22;;;;;;;;;;5010719;28;20057;-79
2023/12/16 03:48:20;;;;;;;7.88;4.57;;;;;;;;;;5010326;28;20526;-80
2023/12/16 03:50:48;;;;;;;8.77;4.28;;;;;;;;;;5008504;28;20050;-79
2023/12/16 03:53:15;;;;;;;6.82;4.05;;;;;;;;;;5007716;28;20057;-79
2023/12/16 03:55:43;;;;;;;11.93;5.15;;;;;;;;;;5007763;28;20050;-79
2023/12/16 03:58:10;;;;;;;12.70;5.35;;;;;;;;;;5007199;28;20068;-80
2023/12/16 04:00:37;;;;;;;7.55;5.07;;;;;;;;;;5009187;28;20077;-79
2023/12/16 04:03:04;;;;;;;9.60;5.30;;;;;;;;;;5012263;28;20072;-80
2023/12/16 04:05:32;;;;;;;11.95;5.15;;;;;;;;;;5009780;28;20519;-79
2023/12/16 04:07:59;;;;;;;9.10;5.28;;;;;;;;;;5006538;28;20050;-79
2023/12/16 04:10:26;;;;;;;8.30;4.25;;;;;;;;;;5009749;28;20046;-79
2023/12/16 04:12:53;;;;;;;8.15;4.78;;;;;;;;;;5013505;28;20081;-79
2023/12/16 04:15:21;;;;;;;10.68;5.05;;;;;;;;;;5031148;28;20128;-79
2023/12/16 04:17:48;;;;;;;9.55;4.32;;;;;;;;;;5006664;28;20073;-80
2023/12/16 04:20:15;;;;;;;9.30;4.63;;;;;;;;;;5005871;28;20058;-79
2023/12/16 04:22:43;;;;;;;6.65;4.38;;;;;;;;;;5006365;28;20050;-79
2023/12/16 04:25:10;;;;;;;8.13;4.55;;;;;;;;;;5006223;28;20092;-80
2023/12/16 04:27:38;;;;;;;7.82;4.80;;;;;;;;;;5009402;28;20056;-79
2023/12/16 04:30:06;;;;;;;12.57;5.10;;;;;;;;;;5011322;28;20140;-79
2023/12/16 04:32:34;;;;;;;11.60;5.63;;;;;;;;;;5009558;28;20045;-79
2023/12/16 04:35:01;;;;;;;9.88;5.45;;;;;;;;;;5033548;28;20046;-79
2023/12/16 04:37:28;;;;;;;9.32;5.22;;;;;;;;;;5007858;28;20105;-79
2023/12/16 04:39:55;;;;;;;14.80;5.40;;;;;;;;;;5006309;28;20054;-79
2023/12/16 04:42:23;;;;;;;9.32;5.53;;;;;;;;;;5008509;28;20061;-80
2023/12/16 04:44:50;;;;;;;13.30;7.10;;;;;;;;;;5010029;28;20096;-79
2023/12/16 04:47:17;;;;;;;16.40;8.48;;;;;;;;;;5010916;28;20050;-79
2023/12/16 04:49:44;;;;;;;10.55;5.68;;;;;;;;;;5006976;28;20054;-79
2023/12/16 04:52:12;;;;;;;10.50;5.72;;;;;;;;;;5010599;28;20056;-80
2023/12/16 04:54:41;;;;;;;13.18;5.70;;;;;;;;;;5031460;28;20054;-80
2023/12/16 04:57:08;;;;;;;12.85;6.10;;;;;;;;;;5006072;28;20096;-80
2023/12/16 04:59:35;;;;;;;12.63;6.53;;;;;;;;;;5010401;28;20050;-80
2023/12/16 05:02:02;;;;;;;16.80;7.63;;;;;;;;;;5012822;28;20069;-79
2023/12/16 05:04:30;;;;;;;14.30;7.90;;;;;;;;;;5011245;28;20426;-79
2023/12/16 05:06:57;;;;;;;13.40;6.85;;;;;;;;;;5014763;28;20072;-80
2023/12/16 05:09:24;;;;;;;12.60;9.13;;;;;;;;;;5009518;28;20393;-79
2023/12/16 05:11:52;;;;;;;11.13;5.75;;;;;;;;;;5013458;28;20458;-80
2023/12/16 05:14:19;;;;;;;11.55;5.78;;;;;;;;;;5013009;28;20045;-79
2023/12/16 05:16:47;;;;;;;13.27;6.20;;;;;;;;;;5008610;28;20056;-80
2023/12/16 05:19:14;;;;;;;11.32;6.15;;;;;;;;;;5008974;28;20061;-80
2023/12/16 05:21:42;;;;;;;13.90;6.60;;;;;;;;;;5012572;28;20042;-80
2023/12/16 05:24:09;;;;;;;11.80;5.90;;;;;;;;;;5012631;28;20052;-80
2023/12/16 05:26:36;;;;;;;11.23;6.15;;;;;;;;;;5010608;28;20101;-80
2023/12/16 05:29:04;;;;;;;10.90;6.38;;;;;;;;;;5009602;28;20097;-80
2023/12/16 05:31:31;;;;;;;12.65;5.93;;;;;;;;;;5012925;28;20071;-80
2023/12/16 05:33:58;;;;;;;10.15;6.07;;;;;;;;;;5013975;28;20106;-80
2023/12/16 05:36:26;;;;;;;12.60;6.35;;;;;;;;;;5014040;28;20072;-80
2023/12/16 05:38:53;;;;;;;13.55;7.18;;;;;;;;;;5012061;28;20053;-80
2023/12/16 05:41:20;;;;;;;11.23;6.22;;;;;;;;;;5012952;28;20077;-80
2023/12/16 05:43:47;;;;;;;8.85;6.30;;;;;;;;;;5014497;28;20049;-79
2023/12/16 05:46:14;;;;;;;9.63;5.50;;;;;;;;;;5014052;28;20077;-79
2023/12/16 05:48:42;;;;;;;8.18;5.25;;;;;;;;;;5006628;28;20060;-79
2023/12/16 05:51:09;;;;;;;11.27;5.82;;;;;;;;;;5004991;28;20057;-80
2023/12/16 05:53:37;;;;;;;11.35;6.43;;;;;;;;;;5007248;28;20499;-79
2023/12/16 05:56:05;;;;;;;13.13;6.95;;;;;;;;;;5010059;28;20049;-80
2023/12/16 05:58:33;;;;;;;13.70;6.47;;;;;;;;;;5006228;28;20518;-80
2023/12/16 06:01:00;;;;;;;12.10;6.03;;;;;;;;;;5004825;28;20062;-79
2023/12/16 06:03:28;;;;;;;11.73;7.10;;;;;;;;;;5006203;28;20500;-79
2023/12/16 06:05:55;;;;;;;16.42;8.30;;;;;;;;;;5007934;28;20459;-79
2023/12/16 06:08:22;;;;;;;14.35;6.65;;;;;;;;;;5004647;28;20054;-80
2023/12/16 06:10:49;;;;;;;9.90;5.85;;;;;;;;;;5009444;28;20046;-79
2023/12/16 06:13:17;;;;;;;13.95;5.57;;;;;;;;;;5008624;28;20045;-80
2023/12/16 06:15:44;;;;;;;20.40;11.32;;;;;;;;;;5006036;28;20057;-79
2023/12/16 06:18:11;;;;;;;27.25;12.52;;;;;;;;;;5006657;28;20050;-80
2023/12/16 06:20:39;;;;;;;25.50;12.57;;;;;;;;;;5012695;28;20053;-79
2023/12/16 06:23:06;;;;;;;30.77;15.20;;;;;;;;;;5004477;28;20523;-80
2023/12/16 06:25:33;;;;;;;33.80;13.30;;;;;;;;;;5008022;28;20109;-80
2023/12/16 06:28:00;;;;;;;31.10;11.45;;;;;;;;;;5007591;28;20073;-80
2023/12/16 06:30:28;;;;;;;19.23;9.35;;;;;;;;;;5005764;28;20049;-80
2023/12/16 06:32:55;;;;;;;11.98;7.30;;;;;;;;;;5005549;28;20550;-79
2023/12/16 06:35:22;;;;;;;17.75;7.22;;;;;;;;;;5028788;28;20491;-79
2023/12/16 06:37:49;;;;;;;12.50;7.22;;;;;;;;;;5004717;28;20046;-79
2023/12/16 06:40:17;;;;;;;14.57;7.20;;;;;;;;;;5003436;28;20060;-79
2023/12/16 06:42:44;;;;;;;12.20;6.93;;;;;;;;;;5007551;28;20089;-80
2023/12/16 06:45:11;;;;;;;11.73;7.20;;;;;;;;;;5007598;28;20404;-79
2023/12/16 06:47:40;;;;;;;14.02;6.47;;;;;;;;;;5007004;28;20108;-80
2023/12/16 06:50:09;;;;;;;10.88;6.05;;;;;;;;;;5030794;28;20050;-80
2023/12/16 06:52:36;;;;;;;8.40;5.65;;;;;;;;;;5005016;28;20053;-79
2023/12/16 06:55:03;;;;;;;12.73;6.25;;;;;;;;;;5003668;28;20058;-80
2023/12/16 06:57:31;;;;;;;10.05;5.78;;;;;;;;;;5005368;28;20042;-80
2023/12/16 06:59:58;;;;;;;16.02;6.82;;;;;;;;;;5006794;28;20049;-80
2023/12/16 07:02:25;;;;;;;14.77;6.95;;;;;;;;;;5005800;28;20073;-79
2023/12/16 07:04:53;;;;;;;12.85;6.80;;;;;;;;;;5003557;28;20118;-79
2023/12/16 07:07:20;;;;;;;12.88;6.85;;;;;;;;;;5003924;28;20504;-79
2023/12/16 07:09:47;;;;;;;10.35;5.60;;;;;;;;;;5007169;28;20058;-80
2023/12/16 07:12:14;;;;;;;12.93;6.50;;;;;;;;;;5006649;28;20134;-80
2023/12/16 07:14:43;;;;;;;8.73;6.20;;;;;;;;;;5003407;28;20072;-80
2023/12/16 07:17:10;;;;;;;11.15;6.53;;;;;;;;;;5003005;28;20050;-80
2023/12/16 07:19:37;;;;;;;9.45;5.38;;;;;;;;;;5005793;28;20112;-80
2023/12/16 07:22:05;;;;;;;10.48;6.13;;;;;;;;;;5008637;28;20064;-80
2023/12/16 07:24:32;;;;;;;14.82;6.50;;;;;;;;;;5008429;28;20104;-80
2023/12/16 07:26:59;;;;;;;10.30;6.38;;;;;;;;;;5022639;28;20050;-80
2023/12/16 07:29:27;;;;;;;12.80;6.75;;;;;;;;;;5006089;28;20328;-79
2023/12/16 07:31:54;;;;;;;15.13;8.18;;;;;;;;;;5002981;28;20128;-79
2023/12/16 07:34:21;;;;;;;13.77;8.55;;;;;;;;;;5009322;28;20122;-79
2023/12/16 07:36:49;;;;;;;13.95;7.90;;;;;;;;;;5031452;28;20123;-80
2023/12/16 07:39:16;;;;;;;16.33;8.60;;;;;;;;;;5031254;28;20410;-80
2023/12/16 07:41:43;;;;;;;13.75;7.07;;;;;;;;;;5003564;28;20109;-80
2023/12/16 07:44:11;;;;;;;11.25;7.30;;;;;;;;;;5004838;28;20054;-80
2023/12/16 07:46:41;;;;;;;13.48;6.72;;;;;;;;;;5006517;28;20064;-79
2023/12/16 07:49:10;;;;;;;14.18;7.88;;;;;;;;;;5007190;28;20060;-80
2023/12/16 07:51:37;;;;;;;15.38;9.07;;;;;;;;;;5004770;28;20054;-79
2023/12/16 07:54:04;;;;;;;18.10;8.75;;;;;;;;;;5004605;28;20050;-79
2023/12/16 07:56:31;;;;;;;18.05;9.13;;;;;;;;;;5008177;28;20050;-80
2023/12/16 07:58:59;;;;;;;20.50;9.68;;;;;;;;;;5008342;28;20053;-79
2023/12/16 08:01:26;;;;;;;14.57;8.15;;;;;;;;;;5007819;28;20198;-79
2023/12/16 08:03:53;;;;;;;12.30;7.53;;;;;;;;;;5005572;28;20056;-80
2023/12/16 08:06:21;;;;;;;14.70;8.43;;;;;;;;;;5006056;28;20163;-80
2023/12/16 08:08:48;;;;;;;15.70;8.32;;;;;;;;;;5009314;28;20053;-80
2023/12/16 08:11:15;;;;;;;13.35;8.02;;;;;;;;;;5009865;28;20085;-80
2023/12/16 08:13:42;;;;;;;11.65;7.35;;;;;;;;;;5006655;28;20057;-80
2023/12/16 08:16:11;;;;;;;12.38;7.38;;;;;;;;;;5010098;28;20050;-80
2023/12/16 08:18:39;;;;;;;9.75;6.55;;;;;;;;;;5033793;28;20050;-80
2023/12/16 08:21:06;;;;;;;10.93;5.95;;;;;;;;;;5012363;28;20117;-80
2023/12/16 08:23:33;;;;;;;12.38;6.38;;;;;;;;;;5010435;28;20100;-80
2023/12/16 08:26:01;;;;;;;11.82;5.68;;;;;;;;;;5034829;28;20049;-80
2023/12/16 08:28:28;;;;;;;10.02;5.70;;;;;;;;;;5010338;28;20442;-80
2023/12/16 08:30:55;;;;;;;13.23;6.18;;;;;;;;;;5008437;28;20046;-80
2023/12/16 08:33:23;;;;;;;11.02;6.35;;;;;;;;;;5011287;28;20046;-80
2023/12/16 08:35:50;;;;;;;6.97;5.80;;;;;;;;;;5013871;28;20117;-80
2023/12/16 08:38:17;;;;;;;10.90;6.47;;;;;;;;;;5014380;28;20481;-80
2023/12/16 08:40:45;;;;;;;10.55;6.60;;;;;;;;;;5011643;28;20050;-79
2023/12/16 08:43:12;;;;;;;9.65;6.88;;;;;;;;;;5011759;28;20054;-79
2023/12/16 08:45:39;;;;;;;13.50;7.25;;;;;;;;;;5012017;28;20104;-79
2023/12/16 08:48:06;;;;;;;10.68;6.47;;;;;;;;;;5011433;28;20054;-80
2023/12/16 08:50:34;;;;;;;9.25;6.28;;;;;;;;;;5007829;28;20049;-80
2023/12/16 08:53:01;;;;;;;13.02;6.95;;;;;;;;;;5006130;28;20046;-80
2023/12/16 08:55:28;;;;;;;14.55;7.55;;;;;;;;;;5015669;28;20053;-80
2023/12/16 08:57:56;;;;;;;9.73;6.30;;;;;;;;;;5007796;28;20046;-80
2023/12/16 09:00:24;;;;;;;13.18;6.60;;;;;;;;;;5006639;28;20084;-80
2023/12/16 09:02:51;;;;;;;10.38;6.57;;;;;;;;;;5033808;28;20046;-79
2023/12/16 09:05:19;;;;;;;9.00;6.80;;;;;;;;;;5009725;28;20053;-80
2023/12/16 09:07:47;;;;;;;12.02;7.22;;;;;;;;;;5033990;28;20049;-80
2023/12/16 09:10:14;;;;;;;11.80;6.57;;;;;;;;;;5019383;28;20057;-80
2023/12/16 09:12:41;;;;;;;14.85;6.50;;;;;;;;;;5008687;28;20084;-80
2023/12/16 09:15:09;;;;;;;10.82;6.25;;;;;;;;;;5007600;28;20050;-80
2023/12/16 09:17:36;;;;;;;11.85;6.50;;;;;;;;;;5008277;28;20046;-79
2023/12/16 09:20:04;;;;;;;13.77;6.93;;;;;;;;;;5009282;28;20060;-80
2023/12/16 09:22:31;;;;;;;9.23;5.85;;;;;;;;;;5007730;28;20164;-80
2023/12/16 09:25:00;;;;;;;12.93;6.43;;;;;;;;;;5007451;28;20082;-80
2023/12/16 09:27:27;;;;;;;12.77;7.47;;;;;;;;;;5007975;28;20050;-80
2023/12/16 09:29:55;;;;;;;12.32;6.95;;;;;;;;;;5019578;28;20050;-80
2023/12/16 09:32:22;;;;;;;12.20;7.55;;;;;;;;;;5011000;28;20046;-79
2023/12/16 09:34:49;;;;;;;12.65;6.93;;;;;;;;;;5007098;28;20507;-80
2023/12/16 09:37:17;;;;;;;8.50;5.97;;;;;;;;;;5007039;28;20137;-80
2023/12/16 09:39:44;;;;;;;12.98;6.28;;;;;;;;;;5011848;28;20096;-80
2023/12/16 09:42:13;;;;;;;9.80;5.72;;;;;;;;;;5011305;28;20058;-80
2023/12/16 09:44:41;;;;;;;10.43;5.55;;;;;;;;;;5007401;28;20057;-80
2023/12/16 09:47:11;;;;;;;11.77;6.10;;;;;;;;;;5006910;28;20105;-80
2023/12/16 09:49:38;;;;;;;10.63;5.90;;;;;;;;;;5017039;28;20058;-80
2023/12/16 09:52:06;;;;;;;10.95;5.93;;;;;;;;;;5011554;28;20057;-79
2023/12/16 09:54:33;;;;;;;8.07;5.28;;;;;;;;;;5010125;28;20173;-80
2023/12/16 09:57:01;;;;;;;9.80;5.25;;;;;;;;;;5035945;28;20501;-80
2023/12/16 09:59:30;;;;;;;9.90;4.57;;;;;;;;;;5010432;28;20112;-80
2023/12/16 10:02:04;;;;;;;12.52;4.45;;;;;;;;;;5007811;28;20563;-80
2023/12/16 10:04:32;;;;;;;10.23;4.43;;;;;;;;;;5007708;28;20056;-80
2023/12/16 10:06:59;;;;;;;8.23;4.85;;;;;;;;;;5011573;28;20137;-80
2023/12/16 10:09:27;;;;;;;10.38;4.78;;;;;;;;;;5008525;28;20491;-80
2023/12/16 10:11:56;;;;;;;9.82;4.47;;;;;;;;;;5006317;28;20050;-80
2023/12/16 10:14:23;;;;;;;10.05;4.43;;;;;;;;;;5007179;28;20385;-80
2023/12/16 10:17:02;;;;;;;9.23;3.92;;;;;;;;;;5033707;28;20100;-80
2023/12/16 10:19:30;;;;;;;7.75;4.05;;;;;;;;;;5005303;28;20047;-81
2023/12/16 10:21:58;;;;;;;10.10;4.70;;;;;;;;;;5008279;28;20050;-80
2023/12/16 10:24:27;;;;;;;11.27;3.78;;;;;;;;;;5032262;28;20057;-80
2023/12/16 10:26:56;;;;;;;8.48;4.18;;;;;;;;;;5011269;28;20105;-80
2023/12/16 10:29:25;;;;;;;8.23;3.65;;;;;;;;;;5011220;28;20045;-81
2023/12/16 10:31:54;;;;;;;9.30;3.75;;;;;;;;;;5024393;28;20053;-80
2023/12/16 10:34:22;;;;;;;10.13;3.95;;;;;;;;;;5013154;28;20042;-80
2023/12/16 10:36:51;;;;;;;11.57;3.60;;;;;;;;;;5009181;28;20045;-79
2023/12/16 10:39:21;;;;;;;11.48;3.65;;;;;;;;;;5022737;28;20419;-80
2023/12/16 10:41:48;;;;;;;10.63;5.53;;;;;;;;;;4999845;28;20109;-79
2023/12/16 10:44:16;;;;;;;10.68;6.35;;;;;;;;;;5013673;28;20054;-80
2023/12/16 10:46:46;;;;;;;7.50;4.50;;;;;;;;;;5032656;28;20054;-81
2023/12/16 10:49:13;;;;;;;9.68;4.07;;;;;;;;;;5012715;28;20050;-80
2023/12/16 10:51:46;;;;;;;12.07;3.65;;;;;;;;;;5029156;28;20046;-80
2023/12/16 10:54:18;;;;;;;12.25;3.65;;;;;;;;;;5003772;28;20145;-81
2023/12/16 10:56:51;;;;;;;10.32;3.35;;;;;;;;;;5005400;28;20047;-80
2023/12/16 10:59:19;;;;;;;6.50;3.00;;;;;;;;;;5005265;28;20047;-80
2023/12/16 11:01:55;;;;;;;11.18;3.58;;;;;;;;;;5008311;28;20049;-80
2023/12/16 11:04:27;;;;;;;9.23;3.40;;;;;;;;;;5009439;28;20049;-80
2023/12/16 11:07:08;;;;;;;10.30;3.13;;;;;;;;;;5007146;28;20057;-79
2023/12/16 11:09:35;;;;;;;8.02;3.63;;;;;;;;;;5005763;28;20070;-80
2023/12/16 11:12:03;;;;;;;11.07;3.90;;;;;;;;;;5006139;28;20054;-80
2023/12/16 11:14:31;;;;;;;9.02;2.80;;;;;;;;;;5007331;28;20046;-80
2023/12/16 11:16:59;;;;;;;8.73;3.15;;;;;;;;;;5009524;28;20046;-81
2023/12/16 11:19:30;;;;;;;9.30;3.00;;;;;;;;;;5015702;28;20049;-78
2023/12/16 11:21:58;;;;;;;12.77;3.60;;;;;;;;;;5011473;28;20460;-79
2023/12/16 11:24:25;;;;;;;8.23;2.83;;;;;;;;;;5017484;28;20052;-79
2023/12/16 11:26:53;;;;;;;12.07;3.50;;;;;;;;;;5010427;28;20077;-80
2023/12/16 11:29:22;;;;;;;10.35;3.00;;;;;;;;;;5019950;28;20049;-80
2023/12/16 11:31:51;;;;;;;8.40;2.83;;;;;;;;;;5010326;28;20050;-80
2023/12/16 11:34:41;;;;;;;9.85;3.08;;;;;;;;;;5028921;28;20554;-80
2023/12/16 11:37:08;;;;;;;7.22;2.72;;;;;;;;;;5036499;28;20487;-80
2023/12/16 11:39:37;;;;;;;8.25;2.70;;;;;;;;;;5019828;28;20050;-79
2023/12/16 11:42:04;;;;;;;9.73;2.78;;;;;;;;;;5009111;28;20050;-79
2023/12/16 11:44:47;;;;;;;13.45;2.60;;;;;;;;;;5019821;28;20054;-80
2023/12/16 11:47:18;;;;;;;8.85;3.17;;;;;;;;;;5007237;28;20511;-80
2023/12/16 11:49:47;;;;;;;8.63;2.88;;;;;;;;;;5023881;28;20072;-80
2023/12/16 11:52:20;;;;;;;9.90;2.90;;;;;;;;;;5004841;28;20455;-80
2023/12/16 11:54:51;;;;;;;10.88;3.42;;;;;;;;;;5003823;28;20047;-80
2023/12/16 11:57:19;;;;;;;9.23;3.03;;;;;;;;;;5003321;28;20046;-80
2023/12/16 11:59:50;;;;;;;7.82;2.80;;;;;;;;;;5009156;28;20046;-79
2023/12/16 12:02:18;;;;;;;11.63;3.67;;;;;;;;;;5007944;28;20128;-79
2023/12/16 12:04:46;;;;;;;7.47;3.05;;;;;;;;;;5005323;28;20105;-80
2023/12/16 12:07:14;;;;;;;10.18;3.10;;;;;;;;;;5009629;28;20061;-80
2023/12/16 12:09:42;;;;;;;9.90;3.10;;;;;;;;;;5011228;28;20058;-79
2023/12/16 12:12:10;;;;;;;10.30;3.20;;;;;;;;;;5015411;28;20049;-80
2023/12/16 12:14:45;;;;;;;8.60;3.13;;;;;;;;;;5016054;28;20045;-79
2023/12/16 12:17:12;;;;;;;13.00;3.38;;;;;;;;;;5010845;28;20054;-80
2023/12/16 12:19:43;;;;;;;11.70;3.22;;;;;;;;;;5017605;28;20046;-80
2023/12/16 12:22:10;;;;;;;10.00;3.00;;;;;;;;;;5007287;28;20397;-80
2023/12/16 12:24:38;;;;;;;9.55;3.65;;;;;;;;;;5009752;28;20108;-80
2023/12/16 12:27:05;;;;;;;13.68;4.65;;;;;;;;;;5014467;28;20046;-80
2023/12/16 12:29:51;;;;;;;12.40;4.50;;;;;;;;;;5018023;28;20050;-80
2023/12/16 12:32:19;;;;;;;9.05;2.70;;;;;;;;;;5010743;28;20046;-80
2023/12/16 12:34:46;;;;;;;10.65;3.17;;;;;;;;;;5009773;28;20062;-80
2023/12/16 12:37:14;;;;;;;11.82;3.35;;;;;;;;;;5009999;28;20053;-80
2023/12/16 12:39:41;;;;;;;9.15;3.20;;;;;;;;;;5015362;28;20050;-79
2023/12/16 12:42:08;;;;;;;13.60;3.15;;;;;;;;;;5008508;28;20050;-79
2023/12/16 12:44:37;;;;;;;10.75;3.35;;;;;;;;;;5009551;28;20046;-79
2023/12/16 12:47:04;;;;;;;12.35;3.10;;;;;;;;;;5016225;28;20483;-80
2023/12/16 12:49:35;;;;;;;6.78;2.80;;;;;;;;;;5014918;28;20095;-80
2023/12/16 12:52:03;;;;;;;15.32;3.75;;;;;;;;;;5034030;28;20061;-80
2023/12/16 12:54:57;;;;;;;9.63;3.03;;;;;;;;;;5020485;28;20045;-79
2023/12/16 12:57:24;;;;;;;13.98;3.83;;;;;;;;;;5003908;28;20051;-80
2023/12/16 12:59:51;;;;;;;9.88;3.38;;;;;;;;;;5035005;28;20060;-80
2023/12/16 13:02:30;;;;;;;7.57;3.65;;;;;;;;;;5015771;28;20073;-80
2023/12/16 13:04:58;;;;;;;8.05;3.03;;;;;;;;;;5018655;28;20050;-80
2023/12/16 13:07:25;;;;;;;10.45;3.13;;;;;;;;;;5010503;28;20057;-80
2023/12/16 13:09:52;;;;;;;9.65;3.10;;;;;;;;;;5022336;28;20049;-80
2023/12/16 13:12:21;;;;;;;12.15;3.67;;;;;;;;;;5011318;28;20129;-80
2023/12/16 13:14:48;;;;;;;10.48;3.67;;;;;;;;;;5035198;28;20458;-80
2023/12/16 13:17:16;;;;;;;15.65;3.58;;;;;;;;;;5003146;28;20050;-80
2023/12/16 13:19:43;;;;;;;8.63;3.40;;;;;;;;;;5009812;28;20089;-80
2023/12/16 13:22:11;;;;;;;11.05;3.10;;;;;;;;;;5012455;28;20054;-79
2023/12/16 13:24:39;;;;;;;11.52;3.53;;;;;;;;;;5010563;28;20045;-79
2023/12/16 13:27:06;;;;;;;10.43;3.35;;;;;;;;;;5012822;28;20104;-78
2023/12/16 13:29:33;;;;;;;10.55;3.05;;;;;;;;;;5014124;28;20053;-79
2023/12/16 13:32:01;;;;;;;9.13;2.67;;;;;;;;;;5010133;28;20103;-78
2023/12/16 13:34:29;;;;;;;9.52;3.30;;;;;;;;;;5006295;28;20064;-79
2023/12/16 13:36:56;;;;;;;7.68;2.80;;;;;;;;;;5016621;28;20487;-80
2023/12/16 13:39:24;;;;;;;10.88;2.80;;;;;;;;;;5008588;28;20104;-79
2023/12/16 13:41:52;;;;;;;7.95;3.35;;;;;;;;;;5009461;28;20072;-79
2023/12/16 13:44:20;;;;;;;5.65;3.10;;;;;;;;;;4999432;28;20109;-79
2023/12/16 13:46:47;;;;;;;10.60;3.25;;;;;;;;;;5007259;28;20050;-79
2023/12/16 13:49:15;;;;;;;17.60;4.15;;;;;;;;;;5015217;28;20054;-79
2023/12/16 13:51:42;;;;;;;9.30;3.13;;;;;;;;;;5005254;28;20064;-79
2023/12/16 13:54:09;;;;;;;11.30;3.55;;;;;;;;;;5007466;28;20105;-80
2023/12/16 13:56:38;;;;;;;9.18;2.97;;;;;;;;;;5030254;28;21014;-79
2023/12/16 13:59:05;;;;;;;10.15;3.10;;;;;;;;;;5015165;28;20046;-79
2023/12/16 14:01:32;;;;;;;11.50;3.08;;;;;;;;;;5014202;28;20050;-79
2023/12/16 14:03:59;;;;;;;7.15;2.60;;;;;;;;;;5005930;28;20053;-79
2023/12/16 14:06:27;;;;;;;7.50;2.78;;;;;;;;;;5005338;28;20050;-80
2023/12/16 14:08:54;;;;;;;16.33;3.30;;;;;;;;;;5003672;28;20057;-79
2023/12/16 14:11:21;;;;;;;8.52;3.13;;;;;;;;;;5001002;28;20054;-79
2023/12/16 14:13:48;;;;;;;15.57;3.50;;;;;;;;;;5004011;28;20050;-78
2023/12/16 14:16:16;;;;;;;10.02;2.97;;;;;;;;;;5003673;28;20120;-80
2023/12/16 14:18:43;;;;;;;12.77;3.38;;;;;;;;;;5011688;28;20050;-79
2023/12/16 14:21:10;;;;;;;11.90;3.35;;;;;;;;;;5005746;28;20042;-79
2023/12/16 14:23:37;;;;;;;9.73;2.90;;;;;;;;;;5007006;28;20068;-80
2023/12/16 14:26:06;;;;;;;14.98;2.90;;;;;;;;;;5031507;28;20057;-79
2023/12/16 14:28:33;;;;;;;10.35;3.17;;;;;;;;;;4999011;28;20467;-79
2023/12/16 14:31:00;;;;;;;9.88;3.35;;;;;;;;;;5015082;28;20189;-79
2023/12/16 14:33:28;;;;;;;12.52;2.70;;;;;;;;;;5006206;28;20050;-80
2023/12/16 14:35:56;;;;;;;9.25;3.13;;;;;;;;;;5005091;28;20054;-80
2023/12/16 14:38:23;;;;;;;10.05;3.53;;;;;;;;;;5002153;28;20046;-80
2023/12/16 14:40:51;;;;;;;12.02;3.33;;;;;;;;;;5007203;28;20060;-79